Kezdőlap
METAR-TAF:

METAR-TAF

Repülőterek :

Franklin megye, Vermont, Amerikai Egyesült Államok

földrajzi szélesség: 44-56-25N, földrajzi hosszúság: 073-05-51W, magasság: 69 m

Jelenlegi meteorológiai megfigyelések

A jelentés 25 perccel ezelõtt készült, 15:15 UTC
Nyugat-délnyugati szél 4 kt
Hőmérséklet 17°C
Páratartalom 55%
Légköri nyomás 1009 hPa
Látótávolság: 16.1 km
Szórványos felhőzet 4000 lábon
Szakadozott felhőzet 4800 lábon
Borult 10000 lábon

METAR: KFSO 011515Z AUTO 24004KT 10SM SCT040 BKN048 OVC100 17/08 A2979 RMK AO2 T01740083

Idő: 11:40 (15:40 UTC)


TAF: hiányzik

Meteorológiai megfigyelések és előrejelzések több, mint 4000 repülőtéren (METAR és TAF jelentéseket).

A térképen piros és sárga pontok jelzik az elérhető meteorológiai állomásokat.

Mozgassa az egeret a pont fölött, hogy megjelenjen az állomás neve.

Azután kattintson az időjárási megfigyelések és előrejelzések megtekintéséhez.

A térkép megváltoztatása: kattintson a fekete keresztel jelölt zöld gombra ráközelítéshez, a vonallal jelölt zöld gombra távolításhoz, vagy a zöld nyilakra a szomszédos térképek eléréséhez.


METAR-TAF: